Pindi Bhattian Weather



Pindi Bhattian's Current Weather

Temprature 11.11o clear sky

clear sky

Rain: 0 %

Min Temprature11.11o
Max Temprature11.11o
Humidity82
Wind Speed2.14 m/h
Sun Rise06:58:49
Sun Set17:03:58
Current Time: 14-Dec-2019 08:14:59
Lat/Lon: 31.9, 73.27




Pindi Bhattian's Geo Location



Pindi Bhattian's Weather Forecast

Time Overall Temp Min Temp Max Temp Humidity Wind Speed Rain
14-Dec-2019 (Sat)
11:00:00 clear sky 16.170 16.170 16.170 57 2.72 m/h 0 %
14:00:00 clear sky 18.120 18.120 18.120 48 2.22 m/h 0 %
17:00:00 clear sky 15.500 15.500 15.500 57 0.86 m/h 0 %
20:00:00 clear sky 13.640 13.640 13.640 65 1.36 m/h 0 %
23:00:00 clear sky 12.490 12.490 12.490 71 0.7 m/h 0 %
15-Dec-2019 (Sun)
02:00:00 clear sky 11.560 11.560 11.560 77 1.57 m/h 0 %
05:00:00 clear sky 10.680 10.680 10.680 82 1.35 m/h 0 %
08:00:00 clear sky 11.450 11.450 11.450 79 1.09 m/h 0 %
11:00:00 clear sky 16.700 16.700 16.700 52 2.41 m/h 0 %
14:00:00 clear sky 19.060 19.060 19.060 38 2.95 m/h 0 %
17:00:00 clear sky 16.120 16.120 16.120 45 1.8 m/h 0 %
20:00:00 clear sky 14.020 14.020 14.020 55 2.36 m/h 0 %
23:00:00 clear sky 12.670 12.670 12.670 59 1.91 m/h 0 %
16-Dec-2019 (Mon)
02:00:00 clear sky 11.280 11.280 11.280 64 1.58 m/h 0 %
05:00:00 clear sky 10.270 10.270 10.270 67 1.92 m/h 0 %
08:00:00 clear sky 10.660 10.660 10.660 65 1.65 m/h 0 %
11:00:00 clear sky 16.650 16.650 16.650 41 1.66 m/h 0 %
14:00:00 clear sky 19.010 19.010 19.010 33 2.18 m/h 0 %
17:00:00 clear sky 15.940 15.940 15.940 40 1.32 m/h 0 %
20:00:00 clear sky 13.760 13.760 13.760 43 2.04 m/h 0 %
23:00:00 clear sky 12.130 12.130 12.130 42 1.8 m/h 0 %
17-Dec-2019 (Tue)
02:00:00 clear sky 10.670 10.670 10.670 42 1.57 m/h 0 %
05:00:00 clear sky 9.570 9.570 9.570 43 0.91 m/h 0 %
08:00:00 clear sky 10.380 10.380 10.380 43 0.51 m/h 0 %
11:00:00 clear sky 16.370 16.370 16.370 28 1.74 m/h 0 %
14:00:00 clear sky 19.480 19.480 19.480 22 2.47 m/h 0 %
17:00:00 clear sky 15.580 15.580 15.580 28 1.43 m/h 0 %
20:00:00 few clouds 13.170 13.170 13.170 31 1.44 m/h 0 %
23:00:00 scattered clouds 11.700 11.700 11.700 31 0.99 m/h 0 %
18-Dec-2019 (Wed)
02:00:00 overcast clouds 10.520 10.520 10.520 31 1.32 m/h 0 %
05:00:00 broken clouds 9.410 9.410 9.410 32 1.03 m/h 0 %
08:00:00 scattered clouds 10.210 10.210 10.210 33 0.41 m/h 0 %
11:00:00 broken clouds 16.320 16.320 16.320 23 0.44 m/h 0 %
14:00:00 broken clouds 18.930 18.930 18.930 17 1.93 m/h 0 %
17:00:00 overcast clouds 15.870 15.870 15.870 23 0.66 m/h 0 %
20:00:00 broken clouds 13.710 13.710 13.710 26 0.37 m/h 0 %
23:00:00 scattered clouds 12.000 12.000 12.000 28 0.66 m/h 0 %
19-Dec-2019 (Thu)
02:00:00 scattered clouds 11.510 11.510 11.510 29 1.12 m/h 0 %
05:00:00 few clouds 9.950 9.950 9.950 33 1.28 m/h 0 %
08:00:00 overcast clouds 10.920 10.920 10.920 33 0.39 m/h 0 %

Famous Cities (61)